Pagrindinis puslapis
METAR-TAF:

METAR-TAF

Oro uostai :

Capital City Airport

Frankfortas, Kentukis, Jungtinės Amerikos Valstijos

platuma: 38-11-05N, ilguma: 084-54-12W, Aukštis: 245 m

Dabartinis oras

Ataskaita buvo paskelbta 52 minutes, ne 10:53 UTC
Ramus vėjas
Temperatūra 4°C
Drėgmė 93%
Slėgis 1019 hPa
Matomumas: 16.1 km
Giedras dangus

METAR: KFFT 151053Z AUTO 00000KT 10SM CLR 04/03 A3008 RMK AO2 SLP185 T00440028

Laikas: 07:45 (11:45 UTC)


TAF: trūkstamas

Orai ataskaitas ir orų prognozės (METAR, TAF).

turimą stotys yra geltonos ir raudonos taškus žemėlapyje.

Perkelti pele per norėdami pamatyti stoties vardą.

Tada spustelėkite, norėdami matyti oro stebėjimo ir prognozės.

Norėdami pakeisti žemėlapį: spustelėkite ant žalios mygtukų su juodo kryžiaus žemyn,; žalią mygtuką su brūkšneliu, jei norite nutolinti; arba žalių rodyklių gretimoms žemėlapius.


METAR-TAF: